Time;durP1;ratioP1;P1;durP2;ratioP2;P2;SDS_P1;SDS_P2;PMS_P1;PMS_P2;Temp;Humidity;BMP_temperature;BMP_pressure;BME280_temperature;BME280_humidity;BME280_pressure;Samples;Min_cycle;Max_cycle;Signal;HPM_P1;HPM_P2
2022/08/30 00:01:10;;;;;;;0.00;0.00;;;;;;;;;;5050748;28;20662;-59
2022/08/30 00:03:37;;;;;;;0.00;0.00;;;;;;;;;;5050026;28;20040;-59
2022/08/30 00:06:05;;;;;;;0.00;0.00;;;;;;;;;;5050262;28;20029;-60
2022/08/30 00:08:30;;;;;;;0.00;0.00;;;;;;;;;;5049144;28;20048;-59
2022/08/30 00:10:55;;;;;;;0.00;0.00;;;;;;;;;;5050488;28;20133;-60
2022/08/30 00:13:22;;;;;;;0.00;0.00;;;;;;;;;;5050030;28;20403;-58
2022/08/30 00:15:47;;;;;;;1.35;1.35;;;;;;;;;;5050305;28;20060;-59
2022/08/30 00:18:14;;;;;;;0.00;0.00;;;;;;;;;;5050635;28;20107;-58
2022/08/30 00:20:39;;;;;;;0.00;0.00;;;;;;;;;;5048797;28;20466;-59
2022/08/30 00:23:05;;;;;;;0.00;0.00;;;;;;;;;;5050473;28;20107;-59
2022/08/30 00:25:30;;;;;;;0.00;0.00;;;;;;;;;;5050056;28;20083;-58
2022/08/30 00:27:55;;;;;;;0.70;0.70;;;;;;;;;;5050294;28;20017;-59
2022/08/30 00:30:21;;;;;;;0.08;0.08;;;;;;;;;;5049660;28;20691;-58
2022/08/30 00:32:46;;;;;;;2.40;0.52;;;;;;;;;;5048395;28;20048;-58
2022/08/30 00:35:13;;;;;;;0.00;0.00;;;;;;;;;;5049715;28;20025;-58
2022/08/30 00:37:39;;;;;;;0.00;0.00;;;;;;;;;;5049897;28;20020;-58
2022/08/30 00:40:04;;;;;;;0.00;0.00;;;;;;;;;;5049902;28;20091;-59
2022/08/30 00:42:30;;;;;;;0.00;0.00;;;;;;;;;;5049211;28;20033;-58
2022/08/30 00:44:56;;;;;;;0.00;0.00;;;;;;;;;;5049898;28;20027;-58
2022/08/30 00:47:21;;;;;;;0.00;0.00;;;;;;;;;;5049482;28;20035;-59
2022/08/30 00:49:49;;;;;;;0.00;0.00;;;;;;;;;;5049626;28;20495;-58
2022/08/30 00:52:15;;;;;;;0.00;0.00;;;;;;;;;;5049780;28;20024;-59
2022/08/30 00:54:42;;;;;;;0.00;0.00;;;;;;;;;;5049517;28;20458;-58
2022/08/30 00:57:08;;;;;;;0.00;0.00;;;;;;;;;;5049491;28;20064;-58
2022/08/30 00:59:33;;;;;;;0.00;0.00;;;;;;;;;;5049146;28;20029;-59
2022/08/30 01:02:00;;;;;;;0.00;0.00;;;;;;;;;;5048152;28;20033;-59
2022/08/30 01:04:25;;;;;;;0.00;0.00;;;;;;;;;;5049479;28;20639;-58
2022/08/30 01:06:51;;;;;;;0.00;0.00;;;;;;;;;;5049369;28;20028;-59
2022/08/30 01:09:17;;;;;;;0.00;0.00;;;;;;;;;;5049406;28;20428;-59
2022/08/30 01:11:43;;;;;;;0.00;0.00;;;;;;;;;;5048855;28;20024;-59
2022/08/30 01:14:10;;;;;;;0.00;0.00;;;;;;;;;;5049310;28;20106;-59
2022/08/30 01:16:36;;;;;;;0.00;0.00;;;;;;;;;;5048692;28;20067;-60
2022/08/30 01:19:02;;;;;;;0.00;0.00;;;;;;;;;;5048949;28;20090;-59
2022/08/30 01:21:31;;;;;;;0.00;0.00;;;;;;;;;;5048789;28;20374;-59
2022/08/30 01:23:57;;;;;;;0.00;0.00;;;;;;;;;;5049082;28;20048;-59
2022/08/30 01:26:24;;;;;;;0.00;0.00;;;;;;;;;;5049329;28;20040;-60
2022/08/30 01:28:50;;;;;;;0.00;0.00;;;;;;;;;;5048207;28;20034;-58
2022/08/30 01:31:16;;;;;;;0.00;0.00;;;;;;;;;;5048993;28;20151;-59
2022/08/30 01:33:41;;;;;;;0.00;0.00;;;;;;;;;;5048574;28;20613;-59
2022/08/30 01:36:10;;;;;;;0.00;0.00;;;;;;;;;;5049364;28;20470;-59
2022/08/30 01:38:37;;;;;;;0.00;0.00;;;;;;;;;;5048984;28;20070;-60
2022/08/30 01:41:13;;;;;;;0.00;0.00;;;;;;;;;;5049007;28;20026;-58
2022/08/30 01:43:38;;;;;;;0.00;0.00;;;;;;;;;;5048450;28;20021;-58
2022/08/30 01:46:04;;;;;;;0.00;0.00;;;;;;;;;;5048822;28;20024;-59
2022/08/30 01:48:29;;;;;;;0.00;0.00;;;;;;;;;;5048364;28;20028;-58
2022/08/30 01:50:54;;;;;;;0.00;0.00;;;;;;;;;;5048570;28;20037;-58
2022/08/30 01:53:19;;;;;;;0.00;0.00;;;;;;;;;;5048759;28;20071;-59
2022/08/30 01:55:45;;;;;;;0.45;0.45;;;;;;;;;;5048778;28;20039;-58
2022/08/30 01:58:11;;;;;;;0.00;0.00;;;;;;;;;;5047327;28;20041;-57
2022/08/30 02:00:37;;;;;;;0.00;0.00;;;;;;;;;;5048180;28;20041;-60
2022/08/30 02:03:02;;;;;;;0.00;0.00;;;;;;;;;;5048992;28;20052;-63
2022/08/30 02:05:27;;;;;;;0.00;0.00;;;;;;;;;;5048155;28;20394;-60
2022/08/30 02:07:52;;;;;;;0.35;0.35;;;;;;;;;;5049091;28;20029;-58
2022/08/30 02:10:17;;;;;;;0.00;0.00;;;;;;;;;;5048661;28;20017;-59
2022/08/30 02:12:43;;;;;;;0.13;0.13;;;;;;;;;;5048437;28;20615;-58
2022/08/30 02:15:08;;;;;;;0.10;0.10;;;;;;;;;;5048611;28;20017;-59
2022/08/30 02:17:34;;;;;;;4.15;1.45;;;;;;;;;;5048412;28;20020;-59
2022/08/30 02:19:59;;;;;;;0.00;0.00;;;;;;;;;;5048771;28;20029;-58
2022/08/30 02:22:24;;;;;;;0.00;0.00;;;;;;;;;;5048279;28;20779;-59
2022/08/30 02:24:49;;;;;;;0.00;0.00;;;;;;;;;;5048374;28;20025;-58
2022/08/30 02:27:15;;;;;;;0.00;0.00;;;;;;;;;;5047609;28;20025;-59
2022/08/30 02:29:40;;;;;;;0.10;0.10;;;;;;;;;;5047880;28;20041;-58
2022/08/30 02:32:05;;;;;;;0.00;0.00;;;;;;;;;;5050885;28;20029;-60
2022/08/30 02:34:30;;;;;;;0.00;0.00;;;;;;;;;;5053565;28;20013;-59
2022/08/30 02:36:55;;;;;;;0.00;0.00;;;;;;;;;;5052135;28;20127;-59
2022/08/30 02:39:21;;;;;;;0.00;0.00;;;;;;;;;;5052189;28;20041;-59
2022/08/30 02:41:46;;;;;;;0.00;0.00;;;;;;;;;;5051793;28;20032;-58
2022/08/30 02:44:11;;;;;;;0.00;0.00;;;;;;;;;;5052467;28;20021;-59
2022/08/30 02:46:37;;;;;;;0.13;0.13;;;;;;;;;;5051982;28;20120;-58
2022/08/30 02:49:02;;;;;;;0.00;0.00;;;;;;;;;;5050923;28;20094;-58
2022/08/30 02:51:28;;;;;;;1.55;0.90;;;;;;;;;;5051953;28;20363;-59
2022/08/30 02:53:53;;;;;;;0.35;0.35;;;;;;;;;;5051526;28;20025;-58
2022/08/30 02:56:18;;;;;;;2.08;1.95;;;;;;;;;;5050730;28;20071;-58
2022/08/30 02:58:43;;;;;;;0.00;0.00;;;;;;;;;;5051510;28;20029;-58
2022/08/30 03:01:11;;;;;;;0.00;0.00;;;;;;;;;;5051998;28;20053;-58
2022/08/30 03:03:37;;;;;;;0.80;0.75;;;;;;;;;;5051891;28;20035;-59
2022/08/30 03:06:02;;;;;;;0.00;0.00;;;;;;;;;;5051620;28;20424;-59
2022/08/30 03:08:28;;;;;;;0.00;0.00;;;;;;;;;;5051595;28;20043;-59
2022/08/30 03:10:53;;;;;;;0.03;0.03;;;;;;;;;;5051653;28;20033;-58
2022/08/30 03:13:18;;;;;;;0.13;0.10;;;;;;;;;;5051308;28;20456;-58
2022/08/30 03:15:44;;;;;;;0.00;0.00;;;;;;;;;;5051063;28;20063;-59
2022/08/30 03:18:09;;;;;;;0.75;0.75;;;;;;;;;;5052685;28;20021;-58
2022/08/30 03:20:34;;;;;;;0.00;0.00;;;;;;;;;;5049445;28;20028;-58
2022/08/30 03:23:00;;;;;;;1.40;0.22;;;;;;;;;;5051239;28;20062;-58
2022/08/30 03:25:25;;;;;;;0.95;0.70;;;;;;;;;;5050624;28;20082;-57
2022/08/30 03:27:50;;;;;;;0.00;0.00;;;;;;;;;;5050734;28;20071;-58
2022/08/30 03:30:17;;;;;;;0.00;0.00;;;;;;;;;;5051202;28;20059;-58
2022/08/30 03:32:42;;;;;;;0.00;0.00;;;;;;;;;;5050510;28;20075;-58
2022/08/30 03:35:08;;;;;;;0.00;0.00;;;;;;;;;;5050928;28;20551;-56
2022/08/30 03:37:34;;;;;;;0.00;0.00;;;;;;;;;;5050230;28;20021;-58
2022/08/30 03:39:59;;;;;;;0.00;0.00;;;;;;;;;;5051192;28;20374;-58
2022/08/30 03:42:24;;;;;;;0.00;0.00;;;;;;;;;;5050856;28;20021;-58
2022/08/30 03:44:50;;;;;;;0.10;0.10;;;;;;;;;;5050643;28;20032;-58
2022/08/30 03:47:15;;;;;;;0.00;0.00;;;;;;;;;;5050897;28;20654;-57
2022/08/30 03:49:41;;;;;;;0.00;0.00;;;;;;;;;;5050365;28;20474;-58
2022/08/30 03:52:06;;;;;;;0.00;0.00;;;;;;;;;;5050793;28;20147;-58
2022/08/30 03:54:31;;;;;;;0.00;0.00;;;;;;;;;;5049523;28;20025;-57
2022/08/30 03:56:57;;;;;;;0.00;0.00;;;;;;;;;;5050319;28;20041;-58
2022/08/30 03:59:22;;;;;;;0.00;0.00;;;;;;;;;;5050588;28;20031;-58
2022/08/30 04:01:47;;;;;;;0.00;0.00;;;;;;;;;;5050266;28;20020;-58
2022/08/30 04:04:13;;;;;;;0.00;0.00;;;;;;;;;;5050603;28;20028;-59
2022/08/30 04:06:38;;;;;;;0.00;0.00;;;;;;;;;;5049155;28;20025;-59
2022/08/30 04:09:03;;;;;;;0.00;0.00;;;;;;;;;;5049698;28;20029;-59
2022/08/30 04:11:29;;;;;;;0.00;0.00;;;;;;;;;;5050539;28;20398;-58
2022/08/30 04:13:55;;;;;;;0.00;0.00;;;;;;;;;;5049828;28;20059;-58
2022/08/30 04:16:21;;;;;;;0.00;0.00;;;;;;;;;;5050242;28;20024;-58
2022/08/30 04:18:46;;;;;;;0.00;0.00;;;;;;;;;;5049757;28;20032;-58
2022/08/30 04:21:11;;;;;;;0.00;0.00;;;;;;;;;;5050051;28;20070;-57
2022/08/30 04:23:37;;;;;;;0.00;0.00;;;;;;;;;;5048591;28;20096;-58
2022/08/30 04:26:02;;;;;;;0.00;0.00;;;;;;;;;;5050145;28;20052;-58
2022/08/30 04:28:27;;;;;;;0.00;0.00;;;;;;;;;;5050349;28;20039;-58
2022/08/30 04:30:53;;;;;;;0.00;0.00;;;;;;;;;;5049235;28;20048;-58
2022/08/30 04:33:18;;;;;;;0.00;0.00;;;;;;;;;;5049730;28;20501;-58
2022/08/30 04:35:44;;;;;;;0.00;0.00;;;;;;;;;;5049372;28;20029;-58
2022/08/30 04:38:12;;;;;;;0.00;0.00;;;;;;;;;;5049515;28;20025;-59
2022/08/30 04:40:39;;;;;;;0.20;0.20;;;;;;;;;;5049207;28;20528;-58
2022/08/30 04:43:04;;;;;;;0.00;0.00;;;;;;;;;;5049608;28;20017;-58
2022/08/30 04:45:30;;;;;;;0.00;0.00;;;;;;;;;;5049212;28;20036;-58
2022/08/30 04:47:55;;;;;;;0.00;0.00;;;;;;;;;;5050652;28;20025;-58
2022/08/30 04:50:20;;;;;;;0.00;0.00;;;;;;;;;;5048922;28;20021;-58
2022/08/30 04:52:46;;;;;;;1.08;0.63;;;;;;;;;;5048904;28;20098;-58
2022/08/30 04:55:11;;;;;;;0.00;0.00;;;;;;;;;;5048811;28;20370;-58
2022/08/30 04:57:37;;;;;;;0.00;0.00;;;;;;;;;;5048467;28;20040;-58
2022/08/30 05:00:04;;;;;;;0.00;0.00;;;;;;;;;;5049237;28;20466;-58
2022/08/30 05:02:29;;;;;;;0.00;0.00;;;;;;;;;;5049747;28;20021;-58
2022/08/30 05:07:39;;;;;;;0.00;0.00;;;;;;;;;;5049444;28;20143;-59
2022/08/30 05:10:04;;;;;;;0.00;0.00;;;;;;;;;;5050170;28;20527;-59
2022/08/30 05:12:29;;;;;;;0.00;0.00;;;;;;;;;;5049901;28;20127;-59
2022/08/30 05:14:57;;;;;;;0.00;0.00;;;;;;;;;;5047766;28;20021;-60
2022/08/30 05:17:22;;;;;;;0.00;0.00;;;;;;;;;;5049592;28;20025;-61
2022/08/30 05:19:48;;;;;;;0.00;0.00;;;;;;;;;;5048430;28;20020;-59
2022/08/30 05:22:13;;;;;;;0.15;0.15;;;;;;;;;;5049772;28;20074;-60
2022/08/30 05:24:38;;;;;;;0.00;0.00;;;;;;;;;;5050927;28;20028;-60
2022/08/30 05:27:03;;;;;;;0.55;0.55;;;;;;;;;;5049771;28;20036;-59
2022/08/30 05:29:29;;;;;;;0.00;0.00;;;;;;;;;;5049168;28;20078;-59
2022/08/30 05:31:55;;;;;;;0.00;0.00;;;;;;;;;;5049018;28;20025;-60
2022/08/30 05:34:20;;;;;;;0.00;0.00;;;;;;;;;;5049208;28;20028;-60
2022/08/30 05:36:45;;;;;;;0.00;0.00;;;;;;;;;;5050002;28;20462;-60
2022/08/30 05:39:11;;;;;;;0.00;0.00;;;;;;;;;;5049104;28;20021;-61
2022/08/30 05:41:36;;;;;;;0.00;0.00;;;;;;;;;;5048562;28;20021;-59
2022/08/30 05:44:02;;;;;;;0.00;0.00;;;;;;;;;;5049188;28;20076;-60
2022/08/30 05:46:31;;;;;;;0.00;0.00;;;;;;;;;;5049242;28;20025;-61
2022/08/30 05:48:57;;;;;;;0.00;0.00;;;;;;;;;;5046805;28;20029;-59
2022/08/30 05:51:23;;;;;;;0.00;0.00;;;;;;;;;;5048945;28;20339;-60
2022/08/30 05:53:50;;;;;;;0.00;0.00;;;;;;;;;;5048306;28;20101;-61
2022/08/30 05:56:16;;;;;;;0.00;0.00;;;;;;;;;;5049108;28;20025;-59
2022/08/30 05:58:42;;;;;;;0.00;0.00;;;;;;;;;;5051725;28;20052;-60
2022/08/30 06:01:16;;;;;;;0.00;0.00;;;;;;;;;;5049392;28;20059;-60
2022/08/30 06:03:42;;;;;;;0.00;0.00;;;;;;;;;;5050456;28;20121;-60
2022/08/30 06:06:07;;;;;;;0.70;0.70;;;;;;;;;;5049878;28;20108;-59
2022/08/30 06:08:32;;;;;;;0.00;0.00;;;;;;;;;;5053079;28;20033;-59
2022/08/30 06:10:57;;;;;;;0.00;0.00;;;;;;;;;;5052897;28;20025;-59
2022/08/30 06:13:22;;;;;;;0.00;0.00;;;;;;;;;;5052751;28;20279;-60
2022/08/30 06:15:48;;;;;;;0.00;0.00;;;;;;;;;;5052513;28;20035;-60
2022/08/30 06:18:13;;;;;;;0.10;0.10;;;;;;;;;;5052738;28;20029;-59
2022/08/30 06:20:42;;;;;;;0.00;0.00;;;;;;;;;;5053116;28;20048;-60
2022/08/30 06:23:08;;;;;;;0.00;0.00;;;;;;;;;;5053105;28;20071;-59
2022/08/30 06:25:34;;;;;;;0.00;0.00;;;;;;;;;;5052879;28;20052;-60
2022/08/30 06:28:00;;;;;;;0.00;0.00;;;;;;;;;;5052625;28;20025;-59
2022/08/30 06:30:25;;;;;;;0.00;0.00;;;;;;;;;;5052611;28;20039;-60
2022/08/30 06:32:50;;;;;;;0.03;0.03;;;;;;;;;;5052467;28;20025;-60
2022/08/30 06:35:15;;;;;;;0.00;0.00;;;;;;;;;;5054117;28;20021;-61
2022/08/30 06:37:41;;;;;;;0.00;0.00;;;;;;;;;;5052463;28;20290;-60
2022/08/30 06:40:07;;;;;;;0.00;0.00;;;;;;;;;;5054280;28;20470;-60
2022/08/30 06:42:33;;;;;;;0.08;0.08;;;;;;;;;;5052883;28;20063;-60
2022/08/30 06:44:59;;;;;;;0.00;0.00;;;;;;;;;;5052836;28;20474;-61
2022/08/30 06:47:24;;;;;;;0.00;0.00;;;;;;;;;;5052419;28;20466;-61
2022/08/30 06:49:49;;;;;;;0.00;0.00;;;;;;;;;;5052457;28;20032;-61
2022/08/30 06:52:14;;;;;;;0.00;0.00;;;;;;;;;;5051843;28;20029;-60
2022/08/30 06:54:40;;;;;;;0.00;0.00;;;;;;;;;;5051661;28;20275;-60
2022/08/30 06:57:05;;;;;;;0.00;0.00;;;;;;;;;;5051571;28;20550;-61
2022/08/30 06:59:31;;;;;;;0.00;0.00;;;;;;;;;;5052062;28;20024;-61
2022/08/30 07:01:56;;;;;;;0.00;0.00;;;;;;;;;;5051719;28;20021;-61
2022/08/30 07:04:22;;;;;;;0.00;0.00;;;;;;;;;;5051726;28;20458;-61
2022/08/30 07:06:47;;;;;;;0.00;0.00;;;;;;;;;;5051890;28;20044;-61
2022/08/30 07:09:12;;;;;;;0.00;0.00;;;;;;;;;;5053845;28;20470;-61
2022/08/30 07:11:39;;;;;;;0.00;0.00;;;;;;;;;;5050459;28;20036;-61
2022/08/30 07:14:04;;;;;;;0.00;0.00;;;;;;;;;;5052106;28;20317;-61
2022/08/30 07:16:30;;;;;;;0.00;0.00;;;;;;;;;;5050919;28;20024;-61
2022/08/30 07:18:57;;;;;;;0.25;0.25;;;;;;;;;;5051385;28;20016;-61
2022/08/30 07:21:22;;;;;;;0.00;0.00;;;;;;;;;;5052227;28;20023;-61
2022/08/30 07:23:48;;;;;;;0.00;0.00;;;;;;;;;;5051864;28;20449;-61
2022/08/30 07:26:14;;;;;;;0.00;0.00;;;;;;;;;;5051688;28;20275;-61
2022/08/30 07:28:40;;;;;;;0.00;0.00;;;;;;;;;;5051270;28;20028;-61
2022/08/30 07:31:05;;;;;;;0.00;0.00;;;;;;;;;;5051402;28;20521;-61
2022/08/30 07:33:31;;;;;;;0.00;0.00;;;;;;;;;;5051618;28;20082;-60
2022/08/30 07:35:57;;;;;;;0.00;0.00;;;;;;;;;;5050632;28;20106;-61
2022/08/30 07:38:22;;;;;;;0.00;0.00;;;;;;;;;;5051557;28;20021;-61
2022/08/30 07:40:48;;;;;;;1.65;0.38;;;;;;;;;;5052510;28;20017;-62
2022/08/30 07:43:13;;;;;;;0.00;0.00;;;;;;;;;;5049418;28;20017;-62
2022/08/30 07:45:38;;;;;;;0.00;0.00;;;;;;;;;;5051803;28;20098;-61
2022/08/30 07:48:04;;;;;;;0.10;0.10;;;;;;;;;;5050816;28;20048;-60
2022/08/30 07:50:30;;;;;;;0.15;0.15;;;;;;;;;;5050997;28;20458;-62
2022/08/30 07:52:55;;;;;;;0.00;0.00;;;;;;;;;;5050493;28;20021;-62
2022/08/30 07:55:20;;;;;;;0.00;0.00;;;;;;;;;;5050880;28;20079;-62
2022/08/30 07:57:45;;;;;;;0.70;0.30;;;;;;;;;;5050367;28;20283;-60
2022/08/30 08:00:11;;;;;;;0.00;0.00;;;;;;;;;;5050505;28;20114;-61
2022/08/30 08:02:36;;;;;;;0.00;0.00;;;;;;;;;;5050777;28;20116;-61
2022/08/30 08:05:03;;;;;;;0.00;0.00;;;;;;;;;;5050659;28;20044;-61
2022/08/30 08:07:29;;;;;;;0.00;0.00;;;;;;;;;;5051484;28;20024;-61
2022/08/30 08:09:55;;;;;;;0.00;0.00;;;;;;;;;;5051744;28;20024;-62
2022/08/30 08:12:20;;;;;;;0.00;0.00;;;;;;;;;;5050177;28;20029;-61
2022/08/30 08:14:45;;;;;;;0.10;0.10;;;;;;;;;;5052250;28;20298;-61
2022/08/30 08:17:11;;;;;;;1.00;0.73;;;;;;;;;;5050759;28;20033;-60
2022/08/30 08:19:36;;;;;;;0.82;0.47;;;;;;;;;;5049754;28;20021;-61
2022/08/30 08:22:01;;;;;;;0.08;0.08;;;;;;;;;;5050597;28;20105;-61
2022/08/30 08:24:26;;;;;;;0.00;0.00;;;;;;;;;;5051099;28;20056;-61
2022/08/30 08:26:52;;;;;;;0.00;0.00;;;;;;;;;;5054791;28;20040;-61
2022/08/30 08:29:17;;;;;;;0.00;0.00;;;;;;;;;;5050969;28;20116;-61
2022/08/30 08:31:44;;;;;;;0.00;0.00;;;;;;;;;;5048645;28;20040;-61
2022/08/30 08:34:10;;;;;;;6.70;0.55;;;;;;;;;;5050304;28;20025;-60
2022/08/30 08:36:35;;;;;;;0.00;0.00;;;;;;;;;;5050589;28;20123;-60
2022/08/30 08:39:02;;;;;;;0.00;0.00;;;;;;;;;;5049892;28;20041;-61
2022/08/30 08:41:36;;;;;;;0.00;0.00;;;;;;;;;;5049056;28;20405;-62
2022/08/30 08:44:12;;;;;;;0.10;0.10;;;;;;;;;;5049844;28;20024;-60
2022/08/30 08:46:47;;;;;;;0.30;0.08;;;;;;;;;;5050208;28;20064;-61
2022/08/30 08:49:12;;;;;;;0.00;0.00;;;;;;;;;;5049717;28;20036;-60
2022/08/30 08:54:34;;;;;;;0.00;0.00;;;;;;;;;;5050272;28;20120;-61
2022/08/30 08:56:59;;;;;;;0.00;0.00;;;;;;;;;;5049104;28;20076;-60
2022/08/30 08:59:25;;;;;;;0.10;0.10;;;;;;;;;;5050288;28;20048;-60
2022/08/30 09:01:50;;;;;;;0.00;0.00;;;;;;;;;;5050456;28;20082;-61
2022/08/30 09:04:18;;;;;;;0.73;0.73;;;;;;;;;;5050190;28;20028;-60
2022/08/30 09:06:49;;;;;;;0.00;0.00;;;;;;;;;;5048708;28;20121;-61
2022/08/30 09:09:16;;;;;;;0.00;0.00;;;;;;;;;;5050474;28;20457;-60
2022/08/30 09:11:42;;;;;;;0.15;0.15;;;;;;;;;;5049147;28;20021;-61
2022/08/30 09:14:09;;;;;;;0.00;0.00;;;;;;;;;;5051139;28;20027;-61
2022/08/30 09:16:53;;;;;;;0.13;0.13;;;;;;;;;;5049928;28;20195;-60
2022/08/30 09:19:37;;;;;;;0.00;0.00;;;;;;;;;;5049310;28;20107;-60
2022/08/30 09:22:10;;;;;;;0.00;0.00;;;;;;;;;;5049901;28;20043;-60
2022/08/30 09:24:36;;;;;;;0.70;0.70;;;;;;;;;;5051644;28;20159;-60
2022/08/30 09:27:19;;;;;;;2.75;0.70;;;;;;;;;;5048648;28;20036;-61
2022/08/30 09:29:52;;;;;;;0.47;0.43;;;;;;;;;;5048517;28;20576;-60
2022/08/30 09:32:28;;;;;;;0.30;0.30;;;;;;;;;;5050197;28;20531;-60
2022/08/30 09:34:53;;;;;;;0.00;0.00;;;;;;;;;;5048679;28;20474;-60
2022/08/30 09:37:25;;;;;;;0.00;0.00;;;;;;;;;;5049833;28;20028;-61
2022/08/30 09:39:50;;;;;;;0.00;0.00;;;;;;;;;;5050908;28;20301;-60
2022/08/30 09:42:24;;;;;;;28.33;1.25;;;;;;;;;;5049569;28;20021;-60
2022/08/30 09:44:49;;;;;;;0.20;0.20;;;;;;;;;;5049255;28;20017;-61
2022/08/30 09:47:41;;;;;;;0.60;0.60;;;;;;;;;;5049522;28;20031;-61
2022/08/30 09:50:08;;;;;;;0.00;0.00;;;;;;;;;;5046733;28;20056;-59
2022/08/30 09:52:39;;;;;;;0.20;0.20;;;;;;;;;;5050385;28;20025;-60
2022/08/30 09:55:14;;;;;;;0.10;0.10;;;;;;;;;;5048350;28;20032;-61
2022/08/30 09:58:11;;;;;;;0.75;0.75;;;;;;;;;;5050476;28;20041;-60
2022/08/30 10:00:42;;;;;;;0.00;0.00;;;;;;;;;;5047407;28;20037;-61
2022/08/30 10:03:16;;;;;;;0.05;0.05;;;;;;;;;;5049505;28;20029;-61
2022/08/30 10:05:51;;;;;;;0.00;0.00;;;;;;;;;;5048923;28;20031;-59
2022/08/30 10:08:35;;;;;;;0.00;0.00;;;;;;;;;;5047658;28;20033;-60
2022/08/30 10:11:06;;;;;;;0.10;0.10;;;;;;;;;;5048123;28;20083;-61
2022/08/30 10:13:49;;;;;;;0.00;0.00;;;;;;;;;;5050201;28;20420;-61
2022/08/30 10:16:21;;;;;;;0.00;0.00;;;;;;;;;;5049007;28;20362;-61
2022/08/30 10:18:46;;;;;;;0.00;0.00;;;;;;;;;;5048942;28;20070;-60
2022/08/30 10:21:15;;;;;;;0.00;0.00;;;;;;;;;;5049084;28;20025;-60
2022/08/30 10:23:52;;;;;;;0.00;0.00;;;;;;;;;;5049145;28;20263;-61
2022/08/30 10:26:17;;;;;;;0.00;0.00;;;;;;;;;;5049125;28;20036;-61
2022/08/30 10:28:54;;;;;;;0.00;0.00;;;;;;;;;;5049102;28;20025;-61
2022/08/30 10:31:38;;;;;;;0.00;0.00;;;;;;;;;;5050550;28;20290;-62
2022/08/30 10:34:13;;;;;;;0.00;0.00;;;;;;;;;;5048977;28;20070;-59
2022/08/30 10:36:41;;;;;;;0.17;0.17;;;;;;;;;;5048108;28;20031;-61
2022/08/30 10:39:07;;;;;;;0.30;0.30;;;;;;;;;;5048268;28;20017;-61
2022/08/30 10:41:35;;;;;;;0.00;0.00;;;;;;;;;;5049145;28;20116;-60
2022/08/30 10:44:19;;;;;;;0.28;0.15;;;;;;;;;;5048996;28;20025;-60
2022/08/30 10:46:53;;;;;;;0.00;0.00;;;;;;;;;;5048165;28;20028;-60
2022/08/30 10:49:22;;;;;;;1.60;1.52;;;;;;;;;;5048487;28;20025;-60
2022/08/30 10:51:57;;;;;;;0.82;0.63;;;;;;;;;;5049293;28;20029;-61
2022/08/30 10:54:22;;;;;;;0.20;0.05;;;;;;;;;;5052142;28;20041;-59
2022/08/30 10:56:50;;;;;;;2.80;0.20;;;;;;;;;;5052258;28;20052;-60
2022/08/30 10:59:16;;;;;;;1.35;0.63;;;;;;;;;;5052994;28;20113;-61
2022/08/30 11:02:10;;;;;;;1.02;1.02;;;;;;;;;;5052886;28;20489;-60
2022/08/30 11:04:42;;;;;;;0.00;0.00;;;;;;;;;;5049766;28;20036;-61
2022/08/30 11:07:33;;;;;;;1.45;0.63;;;;;;;;;;5051930;28;20021;-61
2022/08/30 11:10:01;;;;;;;0.90;0.63;;;;;;;;;;5051879;28;20037;-61
2022/08/30 11:12:31;;;;;;;0.10;0.10;;;;;;;;;;5052650;28;20028;-61
2022/08/30 11:14:57;;;;;;;0.73;0.55;;;;;;;;;;5052374;28;20017;-60
2022/08/30 11:17:31;;;;;;;0.40;0.40;;;;;;;;;;5054542;28;20028;-61
2022/08/30 11:19:57;;;;;;;3.47;0.63;;;;;;;;;;5052308;28;20029;-60
2022/08/30 11:22:27;;;;;;;0.00;0.00;;;;;;;;;;5054141;28;20474;-61
2022/08/30 11:24:58;;;;;;;0.00;0.00;;;;;;;;;;5051779;28;20102;-61
2022/08/30 11:27:42;;;;;;;0.00;0.00;;;;;;;;;;5052421;28;20052;-62
2022/08/30 11:30:22;;;;;;;0.20;0.00;;;;;;;;;;5050080;28;20032;-61
2022/08/30 11:33:03;;;;;;;0.00;0.00;;;;;;;;;;5051421;28;20099;-61
2022/08/30 11:35:42;;;;;;;0.00;0.00;;;;;;;;;;5049417;28;20025;-60
2022/08/30 11:38:16;;;;;;;0.03;0.03;;;;;;;;;;5051342;28;20136;-60
2022/08/30 11:40:46;;;;;;;0.00;0.00;;;;;;;;;;5052085;28;20020;-60
2022/08/30 11:43:30;;;;;;;0.00;0.00;;;;;;;;;;5051775;28;20070;-61
2022/08/30 11:46:13;;;;;;;0.00;0.00;;;;;;;;;;5051239;28;20013;-60
2022/08/30 11:48:41;;;;;;;0.00;0.00;;;;;;;;;;5051743;28;20031;-61
2022/08/30 11:51:13;;;;;;;0.00;0.00;;;;;;;;;;5052509;28;20017;-61
2022/08/30 11:53:50;;;;;;;0.00;0.00;;;;;;;;;;5051739;28;20259;-60
2022/08/30 11:56:21;;;;;;;0.00;0.00;;;;;;;;;;5051252;28;20377;-61
2022/08/30 11:58:49;;;;;;;0.00;0.00;;;;;;;;;;5051380;28;20017;-61
2022/08/30 12:01:17;;;;;;;0.00;0.00;;;;;;;;;;5051149;28;20024;-61
2022/08/30 12:03:43;;;;;;;0.00;0.00;;;;;;;;;;5048958;28;20020;-61
2022/08/30 12:06:09;;;;;;;0.00;0.00;;;;;;;;;;5051097;28;20028;-60
2022/08/30 12:08:54;;;;;;;0.00;0.00;;;;;;;;;;5051624;28;20025;-61
2022/08/30 12:11:21;;;;;;;0.00;0.00;;;;;;;;;;5051127;28;20028;-60
2022/08/30 12:13:46;;;;;;;0.00;0.00;;;;;;;;;;5051024;28;20082;-60
2022/08/30 12:16:20;;;;;;;0.00;0.00;;;;;;;;;;5050997;28;20033;-60
2022/08/30 12:18:45;;;;;;;0.90;0.43;;;;;;;;;;5051136;28;20104;-61
2022/08/30 12:21:14;;;;;;;0.28;0.28;;;;;;;;;;5050585;28;20530;-60
2022/08/30 12:23:58;;;;;;;0.45;0.45;;;;;;;;;;5051427;28;20424;-60
2022/08/30 12:26:23;;;;;;;0.00;0.00;;;;;;;;;;5050058;28;20025;-60
2022/08/30 12:28:50;;;;;;;0.00;0.00;;;;;;;;;;5051022;28;20474;-61
2022/08/30 12:31:17;;;;;;;0.00;0.00;;;;;;;;;;5049777;28;20598;-60
2022/08/30 12:33:44;;;;;;;0.03;0.03;;;;;;;;;;5050676;28;20013;-61
2022/08/30 12:36:14;;;;;;;0.00;0.00;;;;;;;;;;5053254;28;20027;-60
2022/08/30 12:38:39;;;;;;;0.20;0.20;;;;;;;;;;5049959;28;20108;-61
2022/08/30 12:41:05;;;;;;;0.30;0.30;;;;;;;;;;5050243;28;20092;-61
2022/08/30 12:43:32;;;;;;;0.00;0.00;;;;;;;;;;5050794;28;20028;-60
2022/08/30 12:46:00;;;;;;;0.15;0.15;;;;;;;;;;5050179;28;20564;-61
2022/08/30 12:48:26;;;;;;;0.57;0.57;;;;;;;;;;5050217;28;20028;-61
2022/08/30 12:50:53;;;;;;;13.57;13.05;;;;;;;;;;5050738;28;20016;-61
2022/08/30 12:53:21;;;;;;;0.17;0.17;;;;;;;;;;5051970;28;20450;-62
2022/08/30 12:55:51;;;;;;;0.00;0.00;;;;;;;;;;5049483;28;20044;-62
2022/08/30 12:58:16;;;;;;;0.00;0.00;;;;;;;;;;5049923;28;20358;-61
2022/08/30 13:00:43;;;;;;;0.90;0.80;;;;;;;;;;5049492;28;20438;-60
2022/08/30 13:03:27;;;;;;;0.08;0.08;;;;;;;;;;5050924;28;20021;-60
2022/08/30 13:05:53;;;;;;;0.00;0.00;;;;;;;;;;5050526;28;20459;-60
2022/08/30 13:08:35;;;;;;;3.47;0.43;;;;;;;;;;5050218;28;20025;-63
2022/08/30 13:11:23;;;;;;;0.00;0.00;;;;;;;;;;5048935;28;20021;-61
2022/08/30 13:13:52;;;;;;;0.00;0.00;;;;;;;;;;5050073;28;20036;-61
2022/08/30 13:16:17;;;;;;;0.10;0.10;;;;;;;;;;5050573;28;20032;-60
2022/08/30 13:18:53;;;;;;;0.00;0.00;;;;;;;;;;5049392;28;20025;-60
2022/08/30 13:21:23;;;;;;;0.00;0.00;;;;;;;;;;5049260;28;20260;-61
2022/08/30 13:23:49;;;;;;;0.10;0.10;;;;;;;;;;5049470;28;20485;-61
2022/08/30 13:26:14;;;;;;;0.10;0.10;;;;;;;;;;5049304;28;20025;-60
2022/08/30 13:28:47;;;;;;;0.10;0.10;;;;;;;;;;5048899;28;20032;-61
2022/08/30 13:31:12;;;;;;;0.00;0.00;;;;;;;;;;5048238;28;20025;-60
2022/08/30 13:33:38;;;;;;;0.68;0.38;;;;;;;;;;5050977;28;20063;-60
2022/08/30 13:36:03;;;;;;;0.35;0.35;;;;;;;;;;5050857;28;20024;-60
2022/08/30 13:38:28;;;;;;;0.43;0.43;;;;;;;;;;5049858;28;20486;-61
2022/08/30 13:40:53;;;;;;;0.00;0.00;;;;;;;;;;5049914;28;20180;-60
2022/08/30 13:43:19;;;;;;;0.80;0.80;;;;;;;;;;5049389;28;20017;-61
2022/08/30 13:45:44;;;;;;;1.38;1.27;;;;;;;;;;5049340;28;20259;-60
2022/08/30 13:48:10;;;;;;;1.80;0.88;;;;;;;;;;5049073;28;20466;-60
2022/08/30 13:50:35;;;;;;;0.38;0.38;;;;;;;;;;5048973;28;20070;-60
2022/08/30 13:53:00;;;;;;;0.00;0.00;;;;;;;;;;5048893;28;20074;-61
2022/08/30 13:55:26;;;;;;;0.10;0.10;;;;;;;;;;5049360;28;20035;-60
2022/08/30 13:57:51;;;;;;;0.00;0.00;;;;;;;;;;5047773;28;20282;-61
2022/08/30 14:00:17;;;;;;;0.20;0.20;;;;;;;;;;5048923;28;20053;-61
2022/08/30 14:02:43;;;;;;;0.00;0.00;;;;;;;;;;5049379;28;20283;-60
2022/08/30 14:05:08;;;;;;;0.20;0.20;;;;;;;;;;5048878;28;20044;-60
2022/08/30 14:07:33;;;;;;;0.00;0.00;;;;;;;;;;5049687;28;20466;-61
2022/08/30 14:10:01;;;;;;;0.00;0.00;;;;;;;;;;5049133;28;20031;-59
2022/08/30 14:12:26;;;;;;;0.00;0.00;;;;;;;;;;5049108;28;20405;-61
2022/08/30 14:14:51;;;;;;;0.05;0.00;;;;;;;;;;5049222;28;20109;-59
2022/08/30 14:17:16;;;;;;;0.10;0.10;;;;;;;;;;5048580;28;20510;-60
2022/08/30 14:19:42;;;;;;;0.00;0.00;;;;;;;;;;5049334;28;20302;-61
2022/08/30 14:22:07;;;;;;;0.00;0.00;;;;;;;;;;5049220;28;20294;-62
2022/08/30 14:24:32;;;;;;;0.00;0.00;;;;;;;;;;5049133;28;20351;-60
2022/08/30 14:26:57;;;;;;;0.00;0.00;;;;;;;;;;5049201;28;20346;-60
2022/08/30 14:29:24;;;;;;;0.88;0.88;;;;;;;;;;5052902;28;20051;-61
2022/08/30 14:31:50;;;;;;;0.10;0.10;;;;;;;;;;5053454;28;20040;-61
2022/08/30 14:34:16;;;;;;;0.30;0.30;;;;;;;;;;5053796;28;20025;-60
2022/08/30 14:36:42;;;;;;;0.03;0.03;;;;;;;;;;5051693;28;20477;-59
2022/08/30 14:39:09;;;;;;;9.82;0.95;;;;;;;;;;5050820;28;20167;-59
2022/08/30 14:41:39;;;;;;;3.00;2.45;;;;;;;;;;5050245;28;20032;-61
2022/08/30 14:44:04;;;;;;;0.00;0.00;;;;;;;;;;5046788;28;20354;-59
2022/08/30 14:46:29;;;;;;;0.45;0.45;;;;;;;;;;5051774;28;20036;-59
2022/08/30 14:48:54;;;;;;;0.00;0.00;;;;;;;;;;5051533;28;20481;-60
2022/08/30 14:51:20;;;;;;;0.10;0.10;;;;;;;;;;5051229;28;20263;-60